Time;durP1;ratioP1;P1;durP2;ratioP2;P2;SDS_P1;SDS_P2;PMS_P1;PMS_P2;Temp;Humidity;BMP_temperature;BMP_pressure;BME280_temperature;BME280_humidity;BME280_pressure;Samples;Min_cycle;Max_cycle;Signal;HPM_P1;HPM_P2
2022/04/21 04:04:15;;;;;;;13.40;9.80;;;3.20;99.90;;;;;;5757587;24;20381;-79
2022/04/21 04:12:14;;;;;;;11.90;9.03;;;3.30;99.90;;;;;;4854686;29;20315;-75
2022/04/21 04:14:43;;;;;;;10.70;8.73;;;3.40;99.90;;;;;;4848740;29;20246;-77
2022/04/21 04:17:11;;;;;;;13.67;9.40;;;3.40;99.90;;;;;;4846149;29;20625;-79
2022/04/21 04:19:40;;;;;;;11.20;9.23;;;3.50;99.90;;;;;;4844696;29;20271;-78
2022/04/21 04:22:08;;;;;;;13.27;8.70;;;3.50;99.90;;;;;;4844523;29;20200;-79
2022/04/21 04:24:36;;;;;;;12.63;8.47;;;3.60;99.90;;;;;;4843552;29;20486;-79
2022/04/21 04:27:05;;;;;;;13.80;8.70;;;3.60;99.90;;;;;;4843393;29;20551;-79
2022/04/21 04:29:33;;;;;;;10.73;8.00;;;3.60;99.90;;;;;;4844971;29;20512;-77
2022/04/21 04:32:02;;;;;;;12.77;9.30;;;3.60;99.90;;;;;;4843899;29;20709;-75
2022/04/21 04:34:30;;;;;;;11.43;9.17;;;3.50;99.90;;;;;;4843934;29;20216;-79
2022/04/21 04:36:59;;;;;;;14.27;9.30;;;3.50;99.90;;;;;;4843360;29;20725;-78
2022/04/21 04:39:28;;;;;;;13.10;8.47;;;3.50;99.90;;;;;;4843605;29;20849;-76
2022/04/21 04:44:43;;;;;;;12.53;9.07;;;3.40;99.90;;;;;;4844270;29;20252;-77
2022/04/21 04:47:10;;;;;;;12.13;8.90;;;3.40;99.90;;;;;;4844645;29;20459;-78
2022/04/21 04:49:38;;;;;;;14.10;9.20;;;3.40;99.90;;;;;;4844357;29;20545;-78
2022/04/21 04:52:08;;;;;;;13.00;9.27;;;3.50;99.90;;;;;;4844474;29;21019;-76
2022/04/21 04:54:36;;;;;;;13.47;9.40;;;3.40;99.90;;;;;;4843900;29;20880;-77
2022/04/21 04:57:05;;;;;;;13.07;8.97;;;3.40;99.90;;;;;;4843644;29;20268;-75
2022/04/21 04:59:33;;;;;;;14.63;9.43;;;3.50;99.90;;;;;;4843899;29;20275;-75
2022/04/21 05:02:02;;;;;;;12.13;9.30;;;3.60;99.90;;;;;;4844020;29;20588;-75
2022/04/21 05:04:31;;;;;;;14.73;10.53;;;3.60;99.90;;;;;;4844343;29;20287;-77
2022/04/21 05:06:59;;;;;;;14.50;9.67;;;3.70;99.90;;;;;;4843718;29;20450;-75
2022/04/21 05:09:29;;;;;;;11.97;9.10;;;3.70;99.90;;;;;;4843763;29;20268;-80
2022/04/21 05:11:58;;;;;;;13.20;8.63;;;3.80;99.90;;;;;;4843426;29;20689;-78
2022/04/21 05:14:27;;;;;;;11.73;9.37;;;3.90;99.90;;;;;;4843399;29;20574;-77
2022/04/21 05:16:56;;;;;;;12.40;8.90;;;4.00;99.90;;;;;;4843658;29;20649;-77
2022/04/21 05:19:24;;;;;;;12.87;9.40;;;4.20;99.90;;;;;;4843256;29;20215;-77
2022/04/21 05:21:53;;;;;;;12.80;9.17;;;4.30;99.90;;;;;;4842021;29;20261;-77
2022/04/21 05:24:22;;;;;;;10.73;9.57;;;4.30;99.90;;;;;;4843125;29;20551;-75
2022/04/21 05:26:53;;;;;;;12.63;9.30;;;4.50;99.90;;;;;;4844305;29;20539;-76
2022/04/21 05:32:12;;;;;;;11.80;8.93;;;4.70;99.90;;;;;;4843136;29;20216;-79
2022/04/21 05:34:40;;;;;;;13.67;10.03;;;4.80;99.90;;;;;;4843272;29;20227;-76
2022/04/21 05:37:10;;;;;;;13.80;9.70;;;4.90;99.90;;;;;;4843665;29;20235;-79
2022/04/21 05:39:45;;;;;;;12.17;9.47;;;5.00;99.90;;;;;;4844547;29;20204;-78
2022/04/21 05:42:22;;;;;;;10.57;9.47;;;5.10;99.90;;;;;;4843135;29;20219;-78
2022/04/21 05:44:52;;;;;;;12.20;9.70;;;5.20;99.90;;;;;;4843046;29;20226;-75
2022/04/21 05:47:20;;;;;;;11.83;9.20;;;5.20;99.90;;;;;;4843568;29;20713;-78
2022/04/21 05:49:49;;;;;;;13.73;10.50;;;5.30;99.90;;;;;;4842584;29;20228;-79
2022/04/21 05:52:23;;;;;;;10.20;9.07;;;5.50;99.90;;;;;;4842556;29;20288;-81
2022/04/21 05:54:51;;;;;;;11.80;9.27;;;5.50;99.90;;;;;;4842858;29;20243;-78
2022/04/21 05:57:21;;;;;;;11.60;9.10;;;5.70;99.90;;;;;;4842475;29;20252;-77
2022/04/21 05:59:49;;;;;;;11.33;8.93;;;5.80;99.90;;;;;;4842686;29;20211;-77
2022/04/21 06:02:17;;;;;;;10.80;9.43;;;5.80;99.90;;;;;;4842913;29;20225;-75
2022/04/21 06:04:46;;;;;;;10.60;9.40;;;5.80;99.90;;;;;;4842610;29;20254;-76
2022/04/21 06:07:14;;;;;;;10.90;9.70;;;5.90;99.90;;;;;;4842619;29;20299;-78
2022/04/21 06:09:43;;;;;;;12.13;9.13;;;5.90;99.90;;;;;;4842320;29;20255;-74
2022/04/21 06:12:11;;;;;;;14.17;9.27;;;5.90;99.90;;;;;;4842481;29;20288;-77
2022/04/21 06:14:41;;;;;;;11.57;9.53;;;6.00;99.90;;;;;;4842369;29;20243;-79
2022/04/21 06:17:09;;;;;;;9.93;8.90;;;6.00;99.90;;;;;;4842709;29;20219;-77
2022/04/21 06:19:37;;;;;;;11.93;9.67;;;6.10;99.90;;;;;;4842459;29;20311;-74
2022/04/21 06:22:06;;;;;;;12.00;9.10;;;6.30;99.90;;;;;;4843140;29;20211;-79
2022/04/21 06:24:36;;;;;;;12.30;9.83;;;6.30;99.90;;;;;;4841963;29;20946;-77
2022/04/21 06:27:05;;;;;;;19.67;9.73;;;6.30;99.90;;;;;;4842132;29;20648;-76
2022/04/21 06:29:35;;;;;;;11.43;9.60;;;6.40;99.90;;;;;;4842227;29;20227;-78
2022/04/21 06:32:06;;;;;;;15.17;9.60;;;6.40;99.90;;;;;;4839424;29;20200;-77
2022/04/21 06:34:34;;;;;;;15.70;9.87;;;6.40;99.90;;;;;;4840829;29;20669;-78
2022/04/21 06:37:02;;;;;;;12.03;9.53;;;6.40;99.90;;;;;;4839429;29;20272;-78
2022/04/21 06:39:31;;;;;;;11.60;10.00;;;6.50;99.90;;;;;;4841721;29;20294;-77
2022/04/21 06:41:59;;;;;;;11.43;9.47;;;6.50;99.90;;;;;;4841620;29;20207;-78
2022/04/21 06:50:01;;;;;;;10.73;9.23;;;6.80;99.90;;;;;;4841193;29;20263;-76
2022/04/21 06:52:32;;;;;;;12.13;9.33;;;6.80;99.90;;;;;;4843146;29;20264;-76
2022/04/21 06:55:00;;;;;;;10.47;9.23;;;7.00;99.90;;;;;;4842046;29;20762;-76
2022/04/21 06:57:29;;;;;;;11.87;9.47;;;7.10;99.90;;;;;;4823940;29;20220;-78
2022/04/21 06:59:57;;;;;;;11.13;9.80;;;7.00;99.90;;;;;;4823726;29;20252;-77
2022/04/21 07:02:28;;;;;;;11.50;9.23;;;7.00;99.90;;;;;;4824426;29;20315;-73
2022/04/21 07:05:03;;;;;;;10.60;8.77;;;7.30;99.90;;;;;;4824502;29;20228;-77
2022/04/21 07:07:34;;;;;;;11.60;9.13;;;7.40;99.90;;;;;;4824528;29;20216;-76
2022/04/21 07:10:02;;;;;;;10.37;9.20;;;7.40;99.90;;;;;;4825721;29;20307;-76
2022/04/21 07:12:31;;;;;;;9.50;8.50;;;7.70;99.90;;;;;;4843786;29;20254;-76
2022/04/21 07:15:01;;;;;;;11.27;9.30;;;7.80;99.90;;;;;;4847120;29;20238;-78
2022/04/21 07:17:31;;;;;;;9.67;8.67;;;7.90;99.90;;;;;;4844245;29;20215;-72
2022/04/21 07:20:00;;;;;;;10.70;8.73;;;8.20;99.90;;;;;;4842134;29;20246;-75
2022/04/21 07:22:28;;;;;;;13.00;8.90;;;8.50;99.90;;;;;;4841442;29;20229;-78
2022/04/21 07:24:58;;;;;;;9.00;8.10;;;8.70;99.90;;;;;;4841139;29;20267;-77
2022/04/21 07:27:27;;;;;;;10.37;8.57;;;8.90;99.90;;;;;;4841395;29;20275;-75
2022/04/21 07:29:56;;;;;;;10.53;9.50;;;9.20;99.90;;;;;;4825330;29;20558;-76
2022/04/21 07:32:24;;;;;;;12.37;8.50;;;9.50;99.90;;;;;;4822337;29;20223;-76
2022/04/21 07:34:54;;;;;;;10.37;8.23;;;9.60;99.90;;;;;;4823115;29;20251;-77
2022/04/21 07:37:23;;;;;;;9.10;8.07;;;9.50;99.90;;;;;;4823191;29;20212;-76
2022/04/21 07:39:52;;;;;;;9.43;7.13;;;9.60;99.90;;;;;;4822923;29;20307;-76
2022/04/21 07:42:21;;;;;;;11.07;8.00;;;10.00;99.90;;;;;;4822720;29;20231;-77
2022/04/21 07:44:51;;;;;;;10.20;8.13;;;10.20;99.90;;;;;;4840338;29;20628;-77
2022/04/21 07:47:19;;;;;;;9.13;7.60;;;10.00;99.90;;;;;;4841175;29;20277;-78
2022/04/21 07:49:48;;;;;;;9.53;7.63;;;10.40;99.90;;;;;;4841055;29;20625;-77
2022/04/21 07:55:15;;;;;;;9.33;7.27;;;10.90;99.90;;;;;;4840368;29;20211;-76
2022/04/21 07:57:44;;;;;;;11.00;7.50;;;11.70;98.50;;;;;;4839667;29;20212;-77
2022/04/21 08:00:15;;;;;;;8.80;7.27;;;12.10;97.50;;;;;;4830027;29;20263;-77
2022/04/21 08:02:45;;;;;;;10.30;6.77;;;12.50;96.30;;;;;;4830655;29;20549;-75
2022/04/21 08:05:18;;;;;;;11.60;7.07;;;12.70;94.30;;;;;;4840566;29;20250;-73
2022/04/21 08:07:48;;;;;;;11.87;7.63;;;12.70;94.90;;;;;;4841486;29;20256;-79
2022/04/21 08:10:20;;;;;;;8.17;6.87;;;13.10;93.90;;;;;;4849742;29;20246;-77
2022/04/21 08:12:51;;;;;;;7.53;6.70;;;13.00;94.10;;;;;;4839758;29;20226;-78
2022/04/21 08:15:25;;;;;;;9.77;7.10;;;13.60;93.00;;;;;;4840594;29;20299;-78
2022/04/21 08:17:55;;;;;;;6.93;6.23;;;13.80;93.20;;;;;;4839887;29;20247;-78
2022/04/21 08:20:24;;;;;;;8.70;6.97;;;13.60;92.20;;;;;;4840251;29;20301;-78
2022/04/21 08:22:54;;;;;;;7.80;6.77;;;13.70;92.10;;;;;;4821545;29;20231;-77
2022/04/21 08:34:20;;;;;;;7.93;6.80;;;14.20;90.00;;;;;;4839531;29;20722;-76
2022/04/21 08:36:53;;;;;;;8.03;7.00;;;15.40;85.70;;;;;;4840371;29;20297;-77
2022/04/21 08:39:23;;;;;;;7.53;6.73;;;15.60;84.50;;;;;;4840069;29;20314;-77
2022/04/21 08:41:54;;;;;;;10.20;7.13;;;16.00;84.30;;;;;;4839686;29;20303;-77
2022/04/21 08:44:22;;;;;;;9.20;6.97;;;16.20;82.30;;;;;;4840080;29;20196;-78
2022/04/21 08:46:55;;;;;;;7.50;6.70;;;16.60;81.40;;;;;;4838993;29;20314;-75
2022/04/21 08:49:34;;;;;;;7.97;6.37;;;16.60;83.10;;;;;;4841210;29;20215;-75
2022/04/21 08:52:05;;;;;;;7.63;6.50;;;17.70;77.50;;;;;;4841269;29;20215;-77
2022/04/21 08:54:36;;;;;;;7.43;6.57;;;18.90;77.00;;;;;;4839898;29;20337;-74
2022/04/21 08:57:06;;;;;;;7.87;6.60;;;20.10;68.20;;;;;;4841767;29;20216;-74
2022/04/21 08:59:35;;;;;;;7.00;6.30;;;20.40;68.50;;;;;;4843524;29;20227;-77
2022/04/21 09:02:03;;;;;;;9.00;6.80;;;20.40;66.60;;;;;;4843565;29;20660;-75
2022/04/21 09:04:31;;;;;;;7.65;6.18;;;21.60;64.90;;;;;;4848891;29;20594;-76
2022/04/21 09:07:15;;;;;;;6.93;6.22;;;21.90;63.00;;;;;;4843164;29;20231;-75
2022/04/21 09:10:04;;;;;;;8.68;6.10;;;22.30;60.70;;;;;;4843094;29;20709;-75
2022/04/21 09:12:33;;;;;;;6.82;5.70;;;22.50;59.60;;;;;;4843105;29;20298;-76
2022/04/21 09:15:07;;;;;;;6.80;5.60;;;22.20;60.70;;;;;;4843391;29;20295;-75
2022/04/21 09:17:46;;;;;;;7.35;5.97;;;22.20;59.40;;;;;;4842899;29;20234;-74
2022/04/21 09:20:18;;;;;;;8.27;6.40;;;22.40;58.50;;;;;;4843084;29;20215;-75
2022/04/21 09:22:54;;;;;;;7.00;6.30;;;22.90;56.90;;;;;;4844225;29;20545;-77
2022/04/21 09:25:25;;;;;;;7.70;6.45;;;22.90;57.60;;;;;;4843898;29;20211;-76
2022/04/21 09:27:54;;;;;;;8.55;6.43;;;23.30;56.50;;;;;;4843063;29;20202;-76
2022/04/21 09:30:26;;;;;;;7.35;6.63;;;23.20;56.20;;;;;;4839544;29;20276;-76
2022/04/21 09:32:57;;;;;;;8.07;6.60;;;23.00;55.90;;;;;;4843779;29;20243;-76
2022/04/21 09:35:28;;;;;;;10.00;6.90;;;23.50;56.10;;;;;;4842843;29;20231;-75
2022/04/21 09:37:58;;;;;;;7.40;6.18;;;23.10;54.90;;;;;;4833930;29;20303;-75
2022/04/21 09:40:51;;;;;;;6.80;6.10;;;23.40;57.40;;;;;;4840207;29;20577;-76
2022/04/21 09:43:30;;;;;;;7.97;6.80;;;23.80;54.40;;;;;;4842228;29;20298;-76
2022/04/21 09:46:12;;;;;;;7.00;6.30;;;23.60;54.10;;;;;;4827957;29;20669;-75
2022/04/21 09:48:43;;;;;;;9.23;6.63;;;23.80;53.90;;;;;;4840271;29;20248;-77
2022/04/21 09:51:13;;;;;;;7.85;6.90;;;23.40;52.70;;;;;;4841103;29;20283;-74
2022/04/21 09:53:52;;;;;;;7.30;6.65;;;23.40;55.00;;;;;;4841362;29;20299;-76
2022/04/21 09:56:32;;;;;;;8.93;6.60;;;23.50;53.70;;;;;;4841096;29;20722;-76
2022/04/21 09:59:00;;;;;;;7.28;6.55;;;24.00;52.90;;;;;;4842198;29;20282;-77
2022/04/21 10:01:53;;;;;;;7.60;6.43;;;23.40;55.00;;;;;;4848666;29;20603;-77
2022/04/21 10:04:22;;;;;;;7.70;6.55;;;24.30;53.80;;;;;;4842312;29;20634;-74
2022/04/21 10:06:51;;;;;;;7.55;6.45;;;24.10;53.90;;;;;;4837777;29;20204;-77
2022/04/21 10:09:19;;;;;;;7.40;6.70;;;23.80;53.30;;;;;;4841630;29;20344;-74
2022/04/21 10:11:52;;;;;;;8.18;6.80;;;23.90;52.30;;;;;;4841904;29;20208;-75
2022/04/21 10:14:21;;;;;;;8.60;6.85;;;23.80;49.50;;;;;;4839283;29;20299;-76
2022/04/21 10:16:50;;;;;;;7.25;6.35;;;23.50;48.50;;;;;;4841694;29;20211;-78
2022/04/21 10:19:24;;;;;;;10.35;7.00;;;22.80;50.50;;;;;;4841833;29;20231;-77
2022/04/21 10:21:56;;;;;;;7.35;6.57;;;22.40;52.80;;;;;;4841349;29;20247;-77
2022/04/21 10:24:25;;;;;;;7.05;6.35;;;23.30;52.80;;;;;;4842073;29;20204;-77
2022/04/21 10:26:56;;;;;;;8.15;6.65;;;23.60;53.40;;;;;;4841136;29;20235;-76
2022/04/21 10:29:27;;;;;;;8.23;6.35;;;23.80;49.50;;;;;;4841338;29;20215;-75
2022/04/21 10:31:57;;;;;;;7.03;6.32;;;24.10;51.80;;;;;;4841370;29;20542;-76
2022/04/21 10:34:34;;;;;;;7.55;6.75;;;23.80;49.90;;;;;;4840553;29;20888;-77
2022/04/21 10:37:14;;;;;;;7.10;6.40;;;23.40;50.60;;;;;;4841945;29;20606;-76
2022/04/21 10:40:04;;;;;;;7.07;6.13;;;23.40;51.90;;;;;;4841095;29;20210;-76
2022/04/21 10:45:28;;;;;;;6.97;6.13;;;24.70;51.30;;;;;;5162686;27;20538;-76
2022/04/21 10:48:04;;;;;;;8.98;6.15;;;24.30;46.40;;;;;;5127927;27;20209;-75
2022/04/21 10:50:34;;;;;;;7.80;6.30;;;23.90;46.10;;;;;;5128025;27;20255;-77
2022/04/21 10:58:53;;;;;;;7.15;5.80;;;23.20;46.40;;;;;;5129639;27;20212;-76
2022/04/21 11:01:34;;;;;;;8.50;6.15;;;22.60;47.60;;;;;;5129025;27;20663;-74
2022/04/21 11:04:21;;;;;;;6.82;5.80;;;22.40;46.90;;;;;;5129104;28;20311;-76
2022/04/21 11:07:11;;;;;;;7.27;5.90;;;21.60;47.10;;;;;;5129158;28;20194;-77
2022/04/21 11:09:41;;;;;;;6.47;5.63;;;21.40;48.60;;;;;;5129404;27;20258;-78
2022/04/21 11:12:44;;;;;;;6.80;5.57;;;21.20;49.40;;;;;;5128742;28;20210;-76
2022/04/21 11:15:36;;;;;;;6.97;5.90;;;21.10;50.20;;;;;;5129838;28;20319;-75
2022/04/21 11:18:09;;;;;;;6.83;6.13;;;20.90;50.00;;;;;;5129540;27;20218;-76
2022/04/21 11:20:39;;;;;;;9.33;6.07;;;20.70;52.00;;;;;;5129511;27;20201;-78
2022/04/21 11:23:09;;;;;;;7.53;5.70;;;20.60;52.20;;;;;;5129400;27;20210;-77
2022/04/21 11:25:38;;;;;;;6.40;5.80;;;20.80;49.90;;;;;;5128986;28;20240;-75
2022/04/21 11:28:07;;;;;;;7.63;6.80;;;19.90;50.20;;;;;;5128894;27;20260;-77
2022/04/21 11:30:35;;;;;;;7.00;6.30;;;19.50;51.50;;;;;;5128698;27;20758;-76
2022/04/21 11:33:14;;;;;;;7.50;6.33;;;18.50;51.00;;;;;;5129756;28;20209;-74
2022/04/21 11:35:42;;;;;;;8.53;6.70;;;18.30;52.60;;;;;;5129874;27;20292;-73
2022/04/21 11:38:11;;;;;;;7.37;6.63;;;18.20;54.20;;;;;;5129123;27;20553;-73
2022/04/21 11:40:40;;;;;;;8.20;6.87;;;18.40;54.10;;;;;;5130298;27;20206;-76
2022/04/21 11:43:15;;;;;;;10.07;7.10;;;19.00;54.60;;;;;;5129523;27;20248;-75
2022/04/21 11:45:56;;;;;;;7.13;6.43;;;18.90;55.30;;;;;;5129311;28;20661;-76
2022/04/21 11:48:30;;;;;;;7.40;6.60;;;19.70;54.30;;;;;;5127782;28;20196;-78
2022/04/21 11:50:59;;;;;;;7.23;6.53;;;19.80;53.70;;;;;;5128818;28;20650;-76
2022/04/21 11:53:30;;;;;;;6.40;5.80;;;19.20;51.70;;;;;;5129459;28;20210;-78
2022/04/21 11:55:58;;;;;;;6.87;5.90;;;18.90;53.80;;;;;;5120289;27;20233;-78
2022/04/21 11:58:28;;;;;;;7.83;5.97;;;18.80;54.90;;;;;;5115628;28;20679;-78
2022/04/21 12:06:39;;;;;;;8.53;5.73;;;19.60;54.90;;;;;;5095900;28;20206;-77
2022/04/21 12:09:09;;;;;;;6.87;6.27;;;19.30;55.90;;;;;;5093821;28;20775;-78
2022/04/21 12:11:37;;;;;;;6.97;6.23;;;19.30;52.30;;;;;;5094092;28;20218;-76
2022/04/21 12:14:06;;;;;;;7.90;6.57;;;18.50;54.40;;;;;;5094207;28;20227;-78
2022/04/21 12:16:36;;;;;;;7.77;6.80;;;17.90;54.40;;;;;;5094090;28;20312;-77
2022/04/21 12:19:18;;;;;;;9.60;7.30;;;18.10;55.00;;;;;;5099875;28;20214;-76
2022/04/21 12:21:59;;;;;;;7.43;6.63;;;17.60;54.80;;;;;;5114663;28;20198;-77
2022/04/21 12:24:32;;;;;;;11.00;7.10;;;17.80;55.80;;;;;;5114236;28;20222;-75
2022/04/21 12:27:02;;;;;;;9.93;7.50;;;17.50;55.50;;;;;;5114100;28;20722;-75
2022/04/21 12:29:46;;;;;;;7.37;6.63;;;17.20;55.50;;;;;;5113551;28;20285;-77
2022/04/21 12:32:17;;;;;;;8.37;6.13;;;16.90;56.60;;;;;;5112627;28;20222;-79
2022/04/21 12:34:47;;;;;;;8.33;7.03;;;17.20;56.90;;;;;;5111266;28;20210;-76
2022/04/21 12:37:15;;;;;;;8.67;7.50;;;17.60;58.80;;;;;;5113895;28;20206;-76
2022/04/21 12:39:44;;;;;;;8.03;6.30;;;18.20;56.90;;;;;;5110964;28;20683;-76
2022/04/21 12:42:33;;;;;;;9.60;7.40;;;18.50;58.10;;;;;;5112111;28;20310;-76
2022/04/21 12:45:02;;;;;;;6.77;6.07;;;18.60;56.10;;;;;;5113618;28;20210;-76
2022/04/21 12:47:30;;;;;;;8.37;7.53;;;18.80;56.40;;;;;;5113807;28;20210;-78
2022/04/21 12:50:02;;;;;;;9.40;7.00;;;18.60;55.00;;;;;;5113554;28;20210;-76
2022/04/21 12:52:36;;;;;;;8.63;6.83;;;17.60;57.00;;;;;;5113637;28;20318;-78
2022/04/21 12:55:08;;;;;;;8.60;7.30;;;17.70;56.80;;;;;;5093696;28;20498;-80
2022/04/21 12:57:36;;;;;;;12.80;10.37;;;18.00;57.10;;;;;;5089500;28;20519;-79
2022/04/21 13:00:07;;;;;;;8.07;6.83;;;18.00;57.10;;;;;;5092790;28;20249;-76
2022/04/21 13:02:35;;;;;;;9.27;7.20;;;17.20;58.00;;;;;;5087600;28;20699;-78
2022/04/21 13:05:05;;;;;;;8.80;7.07;;;17.40;58.70;;;;;;5088911;28;20195;-78
2022/04/21 13:07:33;;;;;;;8.50;7.70;;;17.80;59.50;;;;;;5088788;28;20260;-78
2022/04/21 13:10:01;;;;;;;7.90;7.10;;;17.60;57.50;;;;;;5092719;28;20280;-77
2022/04/21 13:12:33;;;;;;;8.87;7.77;;;17.80;58.00;;;;;;5093428;28;20207;-77
2022/04/21 13:15:01;;;;;;;9.37;7.67;;;17.80;57.80;;;;;;5093202;28;20317;-77
2022/04/21 13:17:29;;;;;;;8.70;7.70;;;17.50;57.50;;;;;;5092872;28;20733;-77
2022/04/21 13:19:57;;;;;;;8.17;7.37;;;17.10;58.30;;;;;;5092599;28;20199;-77
2022/04/21 13:22:26;;;;;;;8.73;7.30;;;17.40;59.70;;;;;;5092587;28;20231;-76
2022/04/21 13:24:54;;;;;;;9.17;7.40;;;17.60;58.80;;;;;;5092313;28;20240;-80
2022/04/21 13:27:26;;;;;;;10.80;7.60;;;17.70;58.00;;;;;;5092427;28;20245;-77
2022/04/21 13:29:54;;;;;;;10.97;7.63;;;17.70;59.40;;;;;;5092348;28;20648;-76
2022/04/21 13:35:09;;;;;;;12.27;7.53;;;18.30;58.40;;;;;;5090376;28;20214;-75
2022/04/21 13:37:39;;;;;;;9.50;7.43;;;18.70;58.40;;;;;;5092190;28;20211;-78
2022/04/21 13:40:08;;;;;;;8.30;7.50;;;18.40;59.10;;;;;;5093060;28;20202;-73
2022/04/21 13:42:36;;;;;;;8.00;7.00;;;18.10;58.30;;;;;;5092429;28;20206;-78
2022/04/21 13:45:05;;;;;;;8.10;7.30;;;17.50;59.50;;;;;;5092073;28;20257;-76
2022/04/21 13:47:55;;;;;;;11.53;8.07;;;17.90;60.70;;;;;;5092644;28;20213;-80
2022/04/21 13:50:23;;;;;;;8.40;7.00;;;17.60;57.10;;;;;;5092369;28;20726;-78
2022/04/21 13:52:53;;;;;;;9.53;7.40;;;17.40;58.80;;;;;;5092782;28;20206;-74
2022/04/21 13:55:21;;;;;;;9.37;6.70;;;17.50;58.70;;;;;;5091862;28;20658;-75
2022/04/21 13:57:49;;;;;;;7.23;6.53;;;17.80;60.90;;;;;;5091749;28;20668;-77
2022/04/21 14:00:24;;;;;;;7.60;6.60;;;17.60;59.10;;;;;;5091990;28;20679;-78
2022/04/21 14:02:52;;;;;;;7.67;6.87;;;17.40;59.50;;;;;;5085574;28;20207;-75
2022/04/21 14:05:20;;;;;;;7.57;6.67;;;16.90;58.20;;;;;;5092455;28;20306;-74
2022/04/21 14:07:49;;;;;;;7.00;6.30;;;16.60;59.60;;;;;;5092240;28;20209;-72
2022/04/21 14:10:23;;;;;;;8.00;6.13;;;16.20;59.60;;;;;;5092243;28;20209;-74
2022/04/21 14:12:52;;;;;;;6.93;5.83;;;15.70;60.00;;;;;;5092539;28;20214;-72
2022/04/21 14:15:21;;;;;;;6.80;6.10;;;15.80;61.50;;;;;;5092192;28;20231;-76
2022/04/21 14:17:50;;;;;;;6.63;6.03;;;16.30;62.70;;;;;;5091474;28;20297;-75
2022/04/21 14:20:18;;;;;;;7.83;6.33;;;16.50;58.70;;;;;;5091908;28;20217;-75
2022/04/21 14:22:46;;;;;;;8.10;6.17;;;16.70;60.50;;;;;;5093109;28;20210;-73
2022/04/21 14:25:14;;;;;;;6.53;5.67;;;17.00;59.30;;;;;;5091567;28;20262;-76
2022/04/21 14:27:43;;;;;;;7.23;5.80;;;16.90;58.80;;;;;;5090194;28;20203;-74
2022/04/21 14:30:12;;;;;;;6.13;5.47;;;16.90;59.10;;;;;;5091298;28;20558;-74
2022/04/21 14:32:43;;;;;;;7.10;5.83;;;16.50;59.80;;;;;;5091897;28;20213;-76
2022/04/21 14:35:11;;;;;;;11.03;6.23;;;16.30;60.80;;;;;;5090954;28;20262;-74
2022/04/21 14:46:00;;;;;;;6.90;5.40;;;16.30;58.30;;;;;;5091795;28;20290;-74
2022/04/21 14:48:28;;;;;;;7.37;5.20;;;16.40;60.20;;;;;;5091811;28;20578;-74
2022/04/21 14:50:56;;;;;;;10.23;5.20;;;16.10;58.60;;;;;;5092373;28;20622;-76
2022/04/21 14:53:28;;;;;;;6.70;5.47;;;16.40;58.70;;;;;;5092056;28;20301;-76
2022/04/21 14:55:56;;;;;;;11.37;5.57;;;16.40;59.00;;;;;;5091353;28;20702;-78
2022/04/21 14:58:25;;;;;;;6.13;5.10;;;16.50;58.80;;;;;;5092254;28;20297;-76
2022/04/21 15:00:53;;;;;;;5.60;4.90;;;16.50;57.70;;;;;;5087767;28;20609;-74
2022/04/21 15:03:22;;;;;;;5.93;5.33;;;16.40;58.00;;;;;;5094277;28;20238;-77
2022/04/21 15:05:51;;;;;;;6.33;4.90;;;16.50;57.00;;;;;;5095679;28;20246;-76
2022/04/21 15:08:19;;;;;;;6.80;4.90;;;16.50;58.20;;;;;;5095410;28;20656;-74
2022/04/21 15:10:52;;;;;;;7.37;4.53;;;16.60;58.90;;;;;;5095605;28;20242;-75
2022/04/21 15:13:20;;;;;;;6.40;4.60;;;16.70;57.00;;;;;;5095548;28;20223;-76
2022/04/21 15:15:49;;;;;;;4.90;4.40;;;16.70;56.80;;;;;;5093203;28;20707;-77
2022/04/21 15:18:18;;;;;;;7.83;4.27;;;16.50;56.50;;;;;;5091960;28;20245;-77
2022/04/21 15:20:47;;;;;;;6.63;3.93;;;16.50;57.60;;;;;;5091798;28;20610;-77
2022/04/21 15:23:15;;;;;;;5.10;4.00;;;16.50;57.40;;;;;;5091682;28;20234;-76
2022/04/21 15:25:43;;;;;;;7.10;4.00;;;16.60;56.10;;;;;;5092053;28;20550;-76
2022/04/21 15:28:12;;;;;;;4.57;3.63;;;16.40;57.50;;;;;;5091619;28;20211;-76
2022/04/21 15:30:40;;;;;;;6.83;4.00;;;16.40;56.00;;;;;;5092809;28;20241;-78
2022/04/21 15:33:12;;;;;;;7.60;4.57;;;16.40;56.00;;;;;;5095116;28;20214;-76
2022/04/21 15:35:41;;;;;;;5.17;4.30;;;16.30;57.30;;;;;;5094944;28;20305;-75
2022/04/21 15:38:13;;;;;;;5.03;4.53;;;16.40;57.00;;;;;;5095063;28;20242;-75
2022/04/21 15:40:42;;;;;;;6.67;4.30;;;15.90;56.30;;;;;;5094822;28;20729;-76
2022/04/21 15:43:10;;;;;;;7.03;4.10;;;15.90;56.60;;;;;;5094849;28;20238;-77
2022/04/21 15:45:38;;;;;;;5.20;4.00;;;15.80;58.80;;;;;;5095110;28;20711;-73
2022/04/21 15:48:07;;;;;;;6.77;4.50;;;15.90;57.70;;;;;;5095235;28;20222;-72
2022/04/21 15:50:38;;;;;;;5.73;4.23;;;15.70;57.00;;;;;;5094593;28;20225;-76
2022/04/21 15:58:49;;;;;;;4.20;3.80;;;15.40;57.30;;;;;;5095125;28;20570;-77
2022/04/21 16:01:17;;;;;;;4.90;3.70;;;15.40;57.20;;;;;;5089769;28;20242;-74
2022/04/21 16:03:46;;;;;;;5.73;4.13;;;15.50;57.20;;;;;;5094489;28;20209;-77
2022/04/21 16:06:19;;;;;;;5.73;4.50;;;15.40;57.30;;;;;;5094449;28;20210;-76
2022/04/21 16:08:56;;;;;;;5.33;4.37;;;15.30;57.90;;;;;;5094981;28;20258;-74
2022/04/21 16:11:25;;;;;;;5.73;4.30;;;15.10;58.50;;;;;;5094465;28;20215;-76
2022/04/21 16:13:56;;;;;;;7.30;4.60;;;15.10;59.40;;;;;;5094571;28;20296;-77
2022/04/21 16:16:26;;;;;;;5.20;4.57;;;15.20;59.80;;;;;;5093989;28;20273;-74
2022/04/21 16:18:55;;;;;;;6.73;4.63;;;15.10;59.40;;;;;;5094542;28;20733;-74
2022/04/21 16:21:25;;;;;;;11.13;4.70;;;15.20;59.50;;;;;;5095648;28;20239;-77
2022/04/21 16:23:53;;;;;;;6.20;4.30;;;15.20;60.20;;;;;;5094385;28;20211;-77
2022/04/21 16:26:22;;;;;;;6.20;4.87;;;15.20;60.10;;;;;;5094277;28;20209;-79
2022/04/21 16:28:50;;;;;;;10.13;5.20;;;15.10;60.20;;;;;;5094176;28;20291;-77
2022/04/21 16:31:19;;;;;;;8.87;5.70;;;15.00;60.10;;;;;;5094198;28;20215;-79
2022/04/21 16:33:47;;;;;;;7.37;4.90;;;15.00;61.30;;;;;;5093485;28;20253;-76
2022/04/21 16:36:16;;;;;;;5.53;4.37;;;15.00;61.40;;;;;;5093665;28;20317;-76
2022/04/21 16:38:47;;;;;;;5.80;4.57;;;15.00;60.90;;;;;;5093721;28;20289;-76
2022/04/21 16:41:15;;;;;;;11.50;4.83;;;14.90;60.60;;;;;;5093761;28;20203;-76
2022/04/21 16:43:43;;;;;;;7.20;4.60;;;14.80;60.60;;;;;;5093760;28;20215;-77
2022/04/21 16:46:12;;;;;;;5.83;4.73;;;14.70;60.80;;;;;;5093922;28;20608;-77
2022/04/21 16:48:41;;;;;;;6.70;5.40;;;14.60;61.70;;;;;;5093861;28;20587;-77
2022/04/21 16:51:10;;;;;;;4.87;4.30;;;14.50;62.10;;;;;;5093195;28;20723;-76
2022/04/21 16:53:39;;;;;;;7.47;4.77;;;14.40;62.70;;;;;;5093342;28;20242;-75
2022/04/21 16:56:10;;;;;;;6.07;4.20;;;14.40;62.60;;;;;;5093422;28;20246;-78
2022/04/21 16:58:38;;;;;;;9.13;4.43;;;14.30;63.30;;;;;;5093441;28;20524;-76
2022/04/21 17:03:54;;;;;;;4.90;4.10;;;14.30;64.00;;;;;;5093552;28;20282;-75
2022/04/21 17:06:23;;;;;;;5.77;3.83;;;14.20;64.70;;;;;;5093454;28;20207;-76
2022/04/21 17:08:51;;;;;;;4.63;3.60;;;14.10;62.90;;;;;;5093311;28;20207;-76
2022/04/21 17:11:21;;;;;;;6.67;3.80;;;14.10;61.90;;;;;;5093018;28;20211;-74
2022/04/21 17:13:50;;;;;;;6.27;3.53;;;14.00;61.50;;;;;;5093104;28;20230;-76
2022/04/21 17:16:18;;;;;;;7.47;3.80;;;14.00;62.60;;;;;;5093084;28;20567;-76
2022/04/21 17:18:47;;;;;;;5.73;3.40;;;14.00;62.00;;;;;;5093836;28;20249;-79
2022/04/21 17:21:18;;;;;;;6.87;3.60;;;13.90;62.40;;;;;;5093089;28;20225;-76
2022/04/21 17:23:46;;;;;;;7.23;3.50;;;13.80;62.00;;;;;;5093008;28;20207;-77
2022/04/21 17:26:16;;;;;;;5.80;3.70;;;13.70;62.90;;;;;;5092878;28;20239;-77
2022/04/21 17:28:53;;;;;;;8.57;4.30;;;13.60;63.80;;;;;;5092813;28;20198;-77
2022/04/21 17:31:21;;;;;;;6.07;4.03;;;13.60;63.70;;;;;;5092714;28;20237;-75
2022/04/21 17:33:50;;;;;;;6.70;4.13;;;13.50;65.70;;;;;;5092888;28;20607;-78
2022/04/21 17:36:18;;;;;;;6.40;4.17;;;13.30;64.60;;;;;;5092738;28;20206;-78
2022/04/21 17:38:46;;;;;;;6.27;4.33;;;13.30;65.50;;;;;;5092534;28;20589;-75
2022/04/21 17:41:14;;;;;;;5.90;4.03;;;13.20;66.00;;;;;;5092643;28;20260;-76
2022/04/21 17:43:44;;;;;;;6.00;4.10;;;13.10;66.40;;;;;;5092437;28;20215;-76
2022/04/21 17:46:14;;;;;;;6.33;4.13;;;13.10;66.80;;;;;;5092537;28;20207;-77
2022/04/21 17:48:42;;;;;;;9.83;4.50;;;13.00;67.00;;;;;;5092559;28;20282;-74
2022/04/21 17:51:11;;;;;;;7.83;4.43;;;12.90;67.50;;;;;;5092280;28;20259;-75
2022/04/21 17:53:40;;;;;;;6.13;4.13;;;12.90;67.90;;;;;;5091955;28;20253;-77
2022/04/21 17:56:08;;;;;;;6.97;4.80;;;12.80;68.40;;;;;;5092423;28;20571;-77
2022/04/21 17:58:37;;;;;;;6.27;4.77;;;12.70;68.80;;;;;;5092313;28;20234;-78
2022/04/21 18:01:05;;;;;;;5.70;4.60;;;12.60;69.10;;;;;;5092132;28;20211;-76
2022/04/21 18:03:36;;;;;;;10.63;4.73;;;12.50;70.10;;;;;;5092118;28;20680;-77
2022/04/21 18:06:05;;;;;;;7.60;4.70;;;12.40;70.80;;;;;;5092162;28;20222;-73
2022/04/21 18:08:33;;;;;;;11.07;5.80;;;12.30;71.90;;;;;;5091999;28;20224;-77